sensor_id;sensor_type;location;lat;lon;timestamp;pressure;altitude;pressure_sealevel;temperature;humidity
7748;BME280;3918;42.564;23.164;2023-04-01T00:01:27;-11650.84;;;-142.29;49.84
7748;BME280;3918;42.564;23.164;2023-04-01T00:03:54;-11650.84;;;-142.29;50.02
7748;BME280;3918;42.564;23.164;2023-04-01T00:06:21;-11650.84;;;-142.29;49.77
7748;BME280;3918;42.564;23.164;2023-04-01T00:08:48;-11650.84;;;-142.29;49.77
7748;BME280;3918;42.564;23.164;2023-04-01T00:11:16;-11650.84;;;-142.29;49.96
7748;BME280;3918;42.564;23.164;2023-04-01T00:13:43;-11650.84;;;-142.29;50.08
7748;BME280;3918;42.564;23.164;2023-04-01T00:16:12;-11650.84;;;-142.29;49.99
7748;BME280;3918;42.564;23.164;2023-04-01T00:18:39;-11650.84;;;-142.29;50.37
7748;BME280;3918;42.564;23.164;2023-04-01T00:21:07;-11650.84;;;-142.29;50.24
7748;BME280;3918;42.564;23.164;2023-04-01T00:23:34;-11650.84;;;-142.29;50.50
7748;BME280;3918;42.564;23.164;2023-04-01T00:26:01;-11650.84;;;-142.29;50.22
7748;BME280;3918;42.564;23.164;2023-04-01T00:28:28;-11650.84;;;-142.29;50.90
7748;BME280;3918;42.564;23.164;2023-04-01T00:30:55;-11650.84;;;-142.29;50.74
7748;BME280;3918;42.564;23.164;2023-04-01T00:33:23;-11650.84;;;-142.29;50.42
7748;BME280;3918;42.564;23.164;2023-04-01T00:35:50;-11650.84;;;-142.29;50.03
7748;BME280;3918;42.564;23.164;2023-04-01T00:38:17;-11650.84;;;-142.29;50.42
7748;BME280;3918;42.564;23.164;2023-04-01T00:40:47;-11650.84;;;-142.29;50.64
7748;BME280;3918;42.564;23.164;2023-04-01T00:43:16;-11650.84;;;-142.29;50.12
7748;BME280;3918;42.564;23.164;2023-04-01T00:45:45;-11650.84;;;-142.29;50.42
7748;BME280;3918;42.564;23.164;2023-04-01T00:48:15;-11650.84;;;-142.29;50.65
7748;BME280;3918;42.564;23.164;2023-04-01T00:50:46;-11650.84;;;-142.29;50.42
7748;BME280;3918;42.564;23.164;2023-04-01T00:53:16;-11650.84;;;-142.29;50.26
7748;BME280;3918;42.564;23.164;2023-04-01T00:55:50;-11650.84;;;-142.29;50.42
7748;BME280;3918;42.564;23.164;2023-04-01T00:58:21;-11650.84;;;-142.29;50.37
7748;BME280;3918;42.564;23.164;2023-04-01T01:00:50;-11650.84;;;-142.29;50.47
7748;BME280;3918;42.564;23.164;2023-04-01T01:03:17;-11650.84;;;-142.29;50.34
7748;BME280;3918;42.564;23.164;2023-04-01T01:08:47;-11650.84;;;-142.29;50.00
7748;BME280;3918;42.564;23.164;2023-04-01T01:11:24;-11650.84;;;-142.29;49.99
7748;BME280;3918;42.564;23.164;2023-04-01T01:13:58;-11650.84;;;-142.29;49.78
7748;BME280;3918;42.564;23.164;2023-04-01T01:16:30;-11650.84;;;-142.29;49.58
7748;BME280;3918;42.564;23.164;2023-04-01T01:19:08;-11650.84;;;-142.29;49.17
7748;BME280;3918;42.564;23.164;2023-04-01T01:22:04;-11650.84;;;-142.29;49.17
7748;BME280;3918;42.564;23.164;2023-04-01T01:24:46;-11650.84;;;-142.29;49.25
7748;BME280;3918;42.564;23.164;2023-04-01T01:27:18;-11650.84;;;-142.29;49.20
7748;BME280;3918;42.564;23.164;2023-04-01T01:30:09;-11650.84;;;-142.29;48.88
7748;BME280;3918;42.564;23.164;2023-04-01T01:32:53;-11650.84;;;-142.29;48.65
7748;BME280;3918;42.564;23.164;2023-04-01T01:35:29;-11650.84;;;-142.29;49.03
7748;BME280;3918;42.564;23.164;2023-04-01T01:38:00;-11650.84;;;-142.29;49.15
7748;BME280;3918;42.564;23.164;2023-04-01T01:40:30;-11650.84;;;-142.29;49.11
7748;BME280;3918;42.564;23.164;2023-04-01T01:43:00;-11650.84;;;-142.29;49.06
7748;BME280;3918;42.564;23.164;2023-04-01T01:45:32;-11650.84;;;-142.29;49.00
7748;BME280;3918;42.564;23.164;2023-04-01T01:48:02;-11650.84;;;-142.29;49.36
7748;BME280;3918;42.564;23.164;2023-04-01T01:50:31;-11650.84;;;-142.29;48.96
7748;BME280;3918;42.564;23.164;2023-04-01T01:53:03;-11650.84;;;-142.29;48.68
7748;BME280;3918;42.564;23.164;2023-04-01T01:55:32;-11650.84;;;-142.29;48.61
7748;BME280;3918;42.564;23.164;2023-04-01T01:58:09;-11650.84;;;-142.29;48.93
7748;BME280;3918;42.564;23.164;2023-04-01T02:00:38;-11650.84;;;-142.29;49.00
7748;BME280;3918;42.564;23.164;2023-04-01T02:03:06;-11650.84;;;-142.29;48.50
7748;BME280;3918;42.564;23.164;2023-04-01T02:05:35;-11650.84;;;-142.29;48.47
7748;BME280;3918;42.564;23.164;2023-04-01T02:08:06;-11650.84;;;-142.29;48.64
7748;BME280;3918;42.564;23.164;2023-04-01T02:10:37;-11650.84;;;-142.29;48.13
7748;BME280;3918;42.564;23.164;2023-04-01T02:13:09;-11650.84;;;-142.29;48.39
7748;BME280;3918;42.564;23.164;2023-04-01T02:15:42;-11650.84;;;-142.29;48.70
7748;BME280;3918;42.564;23.164;2023-04-01T02:18:13;-11650.84;;;-142.29;48.68
7748;BME280;3918;42.564;23.164;2023-04-01T02:20:43;-11650.84;;;-142.29;48.55
7748;BME280;3918;42.564;23.164;2023-04-01T02:23:11;-11650.84;;;-142.29;48.42
7748;BME280;3918;42.564;23.164;2023-04-01T02:25:39;-11650.84;;;-142.29;48.90
7748;BME280;3918;42.564;23.164;2023-04-01T02:28:09;-11650.84;;;-142.29;48.81
7748;BME280;3918;42.564;23.164;2023-04-01T02:30:38;-11650.84;;;-142.29;48.64
7748;BME280;3918;42.564;23.164;2023-04-01T02:33:07;-11650.84;;;-142.29;48.86
7748;BME280;3918;42.564;23.164;2023-04-01T02:35:35;-11650.84;;;-142.29;49.30
7748;BME280;3918;42.564;23.164;2023-04-01T02:38:04;-11650.84;;;-142.29;49.46
7748;BME280;3918;42.564;23.164;2023-04-01T02:40:42;-11650.84;;;-142.29;49.37
7748;BME280;3918;42.564;23.164;2023-04-01T02:43:08;-11650.84;;;-142.29;49.66
7748;BME280;3918;42.564;23.164;2023-04-01T02:45:35;-11650.84;;;-142.29;49.86
7748;BME280;3918;42.564;23.164;2023-04-01T02:48:03;-11650.84;;;-142.29;49.77
7748;BME280;3918;42.564;23.164;2023-04-01T02:50:30;-11650.84;;;-142.29;50.53
7748;BME280;3918;42.564;23.164;2023-04-01T02:52:56;-11650.84;;;-142.29;50.65
7748;BME280;3918;42.564;23.164;2023-04-01T02:55:25;-11650.84;;;-142.29;50.71
7748;BME280;3918;42.564;23.164;2023-04-01T02:57:52;-11650.84;;;-142.29;51.48
7748;BME280;3918;42.564;23.164;2023-04-01T03:00:18;-11650.84;;;-142.29;51.46
7748;BME280;3918;42.564;23.164;2023-04-01T03:02:45;-11650.84;;;-142.29;51.52
7748;BME280;3918;42.564;23.164;2023-04-01T03:05:12;-11650.84;;;-142.29;52.45
7748;BME280;3918;42.564;23.164;2023-04-01T03:07:39;-11650.84;;;-142.29;52.96
7748;BME280;3918;42.564;23.164;2023-04-01T03:10:07;-11650.84;;;-142.29;52.70
7748;BME280;3918;42.564;23.164;2023-04-01T03:12:35;-11650.84;;;-142.29;54.51
7748;BME280;3918;42.564;23.164;2023-04-01T03:15:02;-11650.84;;;-142.29;58.88
7748;BME280;3918;42.564;23.164;2023-04-01T03:17:29;-11650.84;;;-142.29;65.52
7748;BME280;3918;42.564;23.164;2023-04-01T03:19:56;-11650.84;;;-142.29;68.06
7748;BME280;3918;42.564;23.164;2023-04-01T03:22:23;-11650.84;;;-142.29;66.83
7748;BME280;3918;42.564;23.164;2023-04-01T03:24:49;-11650.84;;;-142.29;68.17
7748;BME280;3918;42.564;23.164;2023-04-01T03:27:16;-11650.84;;;-142.29;69.72
7748;BME280;3918;42.564;23.164;2023-04-01T03:29:44;-11650.84;;;-142.29;70.45
7748;BME280;3918;42.564;23.164;2023-04-01T03:32:11;-11650.84;;;-142.29;68.73
7748;BME280;3918;42.564;23.164;2023-04-01T03:34:38;-11650.84;;;-142.29;68.97
7748;BME280;3918;42.564;23.164;2023-04-01T03:37:04;-11650.84;;;-142.29;68.42
7748;BME280;3918;42.564;23.164;2023-04-01T03:39:31;-11650.84;;;-142.29;65.90
7748;BME280;3918;42.564;23.164;2023-04-01T03:41:59;-11650.84;;;-142.29;65.03
7748;BME280;3918;42.564;23.164;2023-04-01T03:44:26;-11650.84;;;-142.29;63.62
7748;BME280;3918;42.564;23.164;2023-04-01T03:46:54;-11650.84;;;-142.29;65.43
7748;BME280;3918;42.564;23.164;2023-04-01T03:49:21;-11650.84;;;-142.29;65.00
7748;BME280;3918;42.564;23.164;2023-04-01T03:51:47;-11650.84;;;-142.29;64.82
7748;BME280;3918;42.564;23.164;2023-04-01T03:54:14;-11650.84;;;-142.29;61.82
7748;BME280;3918;42.564;23.164;2023-04-01T03:56:42;-11650.84;;;-142.29;59.81
7748;BME280;3918;42.564;23.164;2023-04-01T03:59:09;-11650.84;;;-142.29;58.51
7748;BME280;3918;42.564;23.164;2023-04-01T04:01:35;-11650.84;;;-142.29;56.81
7748;BME280;3918;42.564;23.164;2023-04-01T04:04:04;-11650.84;;;-142.29;56.29
7748;BME280;3918;42.564;23.164;2023-04-01T04:06:31;-11650.84;;;-142.29;56.06
7748;BME280;3918;42.564;23.164;2023-04-01T04:08:59;-11650.84;;;-142.29;55.22
7748;BME280;3918;42.564;23.164;2023-04-01T04:11:26;-11650.84;;;-142.29;53.88
7748;BME280;3918;42.564;23.164;2023-04-01T04:13:53;-11650.84;;;-142.29;51.37
7748;BME280;3918;42.564;23.164;2023-04-01T04:16:19;-11650.84;;;-142.29;51.19
7748;BME280;3918;42.564;23.164;2023-04-01T04:18:46;-11650.84;;;-142.29;50.67
7748;BME280;3918;42.564;23.164;2023-04-01T04:21:15;-11650.84;;;-142.29;49.58
7748;BME280;3918;42.564;23.164;2023-04-01T04:23:42;-11650.84;;;-142.29;49.03
7748;BME280;3918;42.564;23.164;2023-04-01T04:26:10;-11650.84;;;-142.29;48.93
7748;BME280;3918;42.564;23.164;2023-04-01T04:28:38;-11650.84;;;-142.29;48.96
7748;BME280;3918;42.564;23.164;2023-04-01T04:31:05;-11650.84;;;-142.29;49.00
7748;BME280;3918;42.564;23.164;2023-04-01T04:33:33;-11650.84;;;-142.29;48.69
7748;BME280;3918;42.564;23.164;2023-04-01T04:36:00;-11650.84;;;-142.29;48.06
7748;BME280;3918;42.564;23.164;2023-04-01T04:38:28;-11650.84;;;-142.29;47.98
7748;BME280;3918;42.564;23.164;2023-04-01T04:40:55;-11650.84;;;-142.29;48.30
7748;BME280;3918;42.564;23.164;2023-04-01T04:43:22;-11650.84;;;-142.29;47.79
7748;BME280;3918;42.564;23.164;2023-04-01T04:45:49;-11650.84;;;-142.29;48.06
7748;BME280;3918;42.564;23.164;2023-04-01T04:48:16;-11650.84;;;-142.29;47.64
7748;BME280;3918;42.564;23.164;2023-04-01T04:50:44;-11650.84;;;-142.29;47.77
7748;BME280;3918;42.564;23.164;2023-04-01T04:53:11;-11650.84;;;-142.29;48.04
7748;BME280;3918;42.564;23.164;2023-04-01T04:55:42;-11650.84;;;-142.29;47.96
7748;BME280;3918;42.564;23.164;2023-04-01T04:58:09;-11650.84;;;-142.29;48.12
7748;BME280;3918;42.564;23.164;2023-04-01T05:00:36;-11650.84;;;-142.29;48.39
7748;BME280;3918;42.564;23.164;2023-04-01T05:03:03;-11650.84;;;-142.29;47.94
7748;BME280;3918;42.564;23.164;2023-04-01T05:05:29;-11650.84;;;-142.29;48.42
7748;BME280;3918;42.564;23.164;2023-04-01T05:07:56;-11650.84;;;-142.29;48.58
7748;BME280;3918;42.564;23.164;2023-04-01T05:10:23;-11650.84;;;-142.29;48.75
7748;BME280;3918;42.564;23.164;2023-04-01T05:12:51;-11650.84;;;-142.29;48.76
7748;BME280;3918;42.564;23.164;2023-04-01T05:15:18;-11650.84;;;-142.29;48.81
7748;BME280;3918;42.564;23.164;2023-04-01T05:17:45;-11650.84;;;-142.29;48.65
7748;BME280;3918;42.564;23.164;2023-04-01T05:20:12;-11650.84;;;-142.29;48.98
7748;BME280;3918;42.564;23.164;2023-04-01T05:22:40;-11650.84;;;-142.29;48.78
7748;BME280;3918;42.564;23.164;2023-04-01T05:25:07;-11650.84;;;-142.29;48.49
7748;BME280;3918;42.564;23.164;2023-04-01T05:27:34;-11650.84;;;-142.29;48.44
7748;BME280;3918;42.564;23.164;2023-04-01T05:30:03;-11650.84;;;-142.29;47.22
7748;BME280;3918;42.564;23.164;2023-04-01T05:32:30;-11650.84;;;-142.29;44.56
7748;BME280;3918;42.564;23.164;2023-04-01T05:34:57;-11650.84;;;-142.29;41.98
7748;BME280;3918;42.564;23.164;2023-04-01T05:37:24;-11650.84;;;-142.29;40.02
7748;BME280;3918;42.564;23.164;2023-04-01T05:39:51;-11650.84;;;-142.29;38.79
7748;BME280;3918;42.564;23.164;2023-04-01T05:42:17;-11650.84;;;-142.29;37.50
7748;BME280;3918;42.564;23.164;2023-04-01T05:44:44;-11650.84;;;-142.29;38.39
7748;BME280;3918;42.564;23.164;2023-04-01T05:47:12;-11650.84;;;-142.29;38.38
7748;BME280;3918;42.564;23.164;2023-04-01T05:49:39;-11650.84;;;-142.29;38.25
7748;BME280;3918;42.564;23.164;2023-04-01T05:52:06;-11650.84;;;-142.29;38.78
7748;BME280;3918;42.564;23.164;2023-04-01T05:54:33;-11650.84;;;-142.29;38.16
7748;BME280;3918;42.564;23.164;2023-04-01T05:57:00;-11650.84;;;-142.29;37.69
7748;BME280;3918;42.564;23.164;2023-04-01T05:59:26;-11650.84;;;-142.29;38.34
7748;BME280;3918;42.564;23.164;2023-04-01T06:01:53;-11650.84;;;-142.29;37.82
7748;BME280;3918;42.564;23.164;2023-04-01T06:04:21;-11650.84;;;-142.29;37.82
7748;BME280;3918;42.564;23.164;2023-04-01T06:06:48;-11650.84;;;-142.29;39.45
7748;BME280;3918;42.564;23.164;2023-04-01T06:09:17;-11650.84;;;-142.29;40.75
7748;BME280;3918;42.564;23.164;2023-04-01T06:11:55;-11650.84;;;-142.29;41.34
7748;BME280;3918;42.564;23.164;2023-04-01T06:14:32;-11650.84;;;-142.29;42.27
7748;BME280;3918;42.564;23.164;2023-04-01T06:17:18;-11650.84;;;-142.29;43.35
7748;BME280;3918;42.564;23.164;2023-04-01T06:19:54;-11650.84;;;-142.29;43.96
7748;BME280;3918;42.564;23.164;2023-04-01T06:22:36;-11650.84;;;-142.29;44.03
7748;BME280;3918;42.564;23.164;2023-04-01T06:31:26;-11650.84;;;-142.29;45.87
7748;BME280;3918;42.564;23.164;2023-04-01T06:34:13;-11650.84;;;-142.29;45.74
7748;BME280;3918;42.564;23.164;2023-04-01T06:36:54;-11650.84;;;-142.29;45.61
7748;BME280;3918;42.564;23.164;2023-04-01T06:39:42;-11650.84;;;-142.29;45.26
7748;BME280;3918;42.564;23.164;2023-04-01T06:42:24;-11650.84;;;-142.29;45.13
7748;BME280;3918;42.564;23.164;2023-04-01T06:45:06;-11650.84;;;-142.29;45.95
7748;BME280;3918;42.564;23.164;2023-04-01T06:47:45;-11650.84;;;-142.29;46.71
7748;BME280;3918;42.564;23.164;2023-04-01T06:50:21;-11650.84;;;-142.29;46.81
7748;BME280;3918;42.564;23.164;2023-04-01T06:52:55;-11650.84;;;-142.29;46.99
7748;BME280;3918;42.564;23.164;2023-04-01T06:55:27;-11650.84;;;-142.29;47.22
7748;BME280;3918;42.564;23.164;2023-04-01T06:58:00;-11650.84;;;-142.29;47.44
7748;BME280;3918;42.564;23.164;2023-04-01T07:00:32;-11650.84;;;-142.29;47.29
7748;BME280;3918;42.564;23.164;2023-04-01T07:03:06;-11650.84;;;-142.29;47.28
7748;BME280;3918;42.564;23.164;2023-04-01T07:05:37;-11650.84;;;-142.29;47.66
7748;BME280;3918;42.564;23.164;2023-04-01T07:08:08;-11650.84;;;-142.29;47.61
7748;BME280;3918;42.564;23.164;2023-04-01T07:10:43;-11650.84;;;-142.29;47.71
7748;BME280;3918;42.564;23.164;2023-04-01T07:13:18;-11650.84;;;-142.29;47.79
7748;BME280;3918;42.564;23.164;2023-04-01T07:15:54;-11650.84;;;-142.29;47.33
7748;BME280;3918;42.564;23.164;2023-04-01T07:18:30;-11650.84;;;-142.29;47.90
7748;BME280;3918;42.564;23.164;2023-04-01T07:20:59;-11650.84;;;-142.29;46.89
7748;BME280;3918;42.564;23.164;2023-04-01T07:23:32;-11650.84;;;-142.29;47.25
7748;BME280;3918;42.564;23.164;2023-04-01T07:26:11;-11650.84;;;-142.29;47.59
7748;BME280;3918;42.564;23.164;2023-04-01T07:28:41;-11650.84;;;-142.29;46.90
7748;BME280;3918;42.564;23.164;2023-04-01T07:31:18;-11650.84;;;-142.29;46.88
7748;BME280;3918;42.564;23.164;2023-04-01T07:33:53;-11650.84;;;-142.29;47.19
7748;BME280;3918;42.564;23.164;2023-04-01T07:36:26;-11650.84;;;-142.29;47.14
7748;BME280;3918;42.564;23.164;2023-04-01T07:39:07;-11650.84;;;-142.29;47.17
7748;BME280;3918;42.564;23.164;2023-04-01T07:41:46;-11650.84;;;-142.29;47.75
7748;BME280;3918;42.564;23.164;2023-04-01T07:44:25;-11650.84;;;-142.29;48.08
7748;BME280;3918;42.564;23.164;2023-04-01T07:47:11;-11650.84;;;-142.29;47.90
7748;BME280;3918;42.564;23.164;2023-04-01T07:49:49;-11650.84;;;-142.29;48.25
7748;BME280;3918;42.564;23.164;2023-04-01T07:52:25;-11650.84;;;-142.29;48.21
7748;BME280;3918;42.564;23.164;2023-04-01T07:55:01;-11650.84;;;-142.29;48.74
7748;BME280;3918;42.564;23.164;2023-04-01T07:57:36;-11650.84;;;-142.29;48.76
7748;BME280;3918;42.564;23.164;2023-04-01T08:00:10;-11650.84;;;-142.29;49.26
7748;BME280;3918;42.564;23.164;2023-04-01T08:02:51;-11650.84;;;-142.29;49.64
7748;BME280;3918;42.564;23.164;2023-04-01T08:05:26;-11650.84;;;-142.29;48.48
7748;BME280;3918;42.564;23.164;2023-04-01T08:08:01;-11650.84;;;-142.29;48.22
7748;BME280;3918;42.564;23.164;2023-04-01T08:10:36;-11650.84;;;-142.29;48.31
7748;BME280;3918;42.564;23.164;2023-04-01T08:13:12;-11650.84;;;-142.29;47.67
7748;BME280;3918;42.564;23.164;2023-04-01T08:15:50;-11650.84;;;-142.29;47.29
7748;BME280;3918;42.564;23.164;2023-04-01T08:18:29;-11650.84;;;-142.29;47.24
7748;BME280;3918;42.564;23.164;2023-04-01T08:21:00;-11650.84;;;-142.29;46.74
7748;BME280;3918;42.564;23.164;2023-04-01T08:23:31;-11650.84;;;-142.29;46.43
7748;BME280;3918;42.564;23.164;2023-04-01T08:26:03;-11650.84;;;-142.29;46.60
7748;BME280;3918;42.564;23.164;2023-04-01T08:28:34;-11650.84;;;-142.29;45.60
7748;BME280;3918;42.564;23.164;2023-04-01T08:31:05;-11650.84;;;-142.29;45.89
7748;BME280;3918;42.564;23.164;2023-04-01T08:33:36;-11650.84;;;-142.29;45.58
7748;BME280;3918;42.564;23.164;2023-04-01T08:36:07;-11650.84;;;-142.29;45.64
7748;BME280;3918;42.564;23.164;2023-04-01T08:38:40;-11650.84;;;-142.29;44.43
7748;BME280;3918;42.564;23.164;2023-04-01T08:41:27;-11650.84;;;-142.29;42.40
7748;BME280;3918;42.564;23.164;2023-04-01T08:44:39;-11650.84;;;-142.29;41.59
7748;BME280;3918;42.564;23.164;2023-04-01T08:47:26;-11650.84;;;-142.29;40.53
7748;BME280;3918;42.564;23.164;2023-04-01T08:50:18;-11650.84;;;-142.29;40.77
7748;BME280;3918;42.564;23.164;2023-04-01T08:52:53;-11650.84;;;-142.29;41.04
7748;BME280;3918;42.564;23.164;2023-04-01T08:55:34;-11650.84;;;-142.29;41.62
7748;BME280;3918;42.564;23.164;2023-04-01T09:01:17;-11650.84;;;-142.29;41.21
7748;BME280;3918;42.564;23.164;2023-04-01T09:04:14;-11650.84;;;-142.29;41.87
7748;BME280;3918;42.564;23.164;2023-04-01T09:06:55;-11650.84;;;-142.29;41.76
7748;BME280;3918;42.564;23.164;2023-04-01T09:10:04;-11650.84;;;-142.29;41.68
7748;BME280;3918;42.564;23.164;2023-04-01T09:12:59;-11650.84;;;-142.29;42.66
7748;BME280;3918;42.564;23.164;2023-04-01T09:15:42;-11650.84;;;-142.29;42.20
7748;BME280;3918;42.564;23.164;2023-04-01T09:21:24;-11650.84;;;-142.29;43.56
7748;BME280;3918;42.564;23.164;2023-04-01T09:24:19;-11650.84;;;-142.29;43.94
7748;BME280;3918;42.564;23.164;2023-04-01T09:27:02;-11650.84;;;-142.29;43.96
7748;BME280;3918;42.564;23.164;2023-04-01T09:29:55;-11650.84;;;-142.29;43.96
7748;BME280;3918;42.564;23.164;2023-04-01T09:35:45;-11650.84;;;-142.29;44.18
7748;BME280;3918;42.564;23.164;2023-04-01T09:38:26;-11650.84;;;-142.29;44.47
7748;BME280;3918;42.564;23.164;2023-04-01T09:40:56;-11650.84;;;-142.29;43.73
7748;BME280;3918;42.564;23.164;2023-04-01T09:43:26;-11650.84;;;-142.29;43.94
7748;BME280;3918;42.564;23.164;2023-04-01T09:46:06;-11650.84;;;-142.29;44.48
7748;BME280;3918;42.564;23.164;2023-04-01T09:48:46;-11650.84;;;-142.29;45.36
7748;BME280;3918;42.564;23.164;2023-04-01T09:51:26;-11650.84;;;-142.29;46.01
7748;BME280;3918;42.564;23.164;2023-04-01T09:57:18;-11650.84;;;-142.29;46.12
7748;BME280;3918;42.564;23.164;2023-04-01T10:00:08;-11650.84;;;-142.29;46.08
7748;BME280;3918;42.564;23.164;2023-04-01T10:06:27;-11650.84;;;-142.29;45.73
7748;BME280;3918;42.564;23.164;2023-04-01T10:09:30;-11650.84;;;-142.29;45.68
7748;BME280;3918;42.564;23.164;2023-04-01T10:12:41;-11650.84;;;-142.29;45.99
7748;BME280;3918;42.564;23.164;2023-04-01T10:15:43;-11650.84;;;-142.29;45.82
7748;BME280;3918;42.564;23.164;2023-04-01T10:21:39;-11650.84;;;-142.29;44.44
7748;BME280;3918;42.564;23.164;2023-04-01T10:24:34;-11650.84;;;-142.29;44.22
7748;BME280;3918;42.564;23.164;2023-04-01T10:27:19;-11650.84;;;-142.29;44.92
7748;BME280;3918;42.564;23.164;2023-04-01T10:30:06;-11650.84;;;-142.29;43.75
7748;BME280;3918;42.564;23.164;2023-04-01T10:45:48;-11650.84;;;-142.29;44.09
7748;BME280;3918;42.564;23.164;2023-04-01T10:48:43;-11650.84;;;-142.29;43.81
7748;BME280;3918;42.564;23.164;2023-04-01T10:51:35;-11650.84;;;-142.29;43.95
7748;BME280;3918;42.564;23.164;2023-04-01T10:54:36;-11650.84;;;-142.29;43.91
7748;BME280;3918;42.564;23.164;2023-04-01T10:57:28;-11650.84;;;-142.29;43.18
7748;BME280;3918;42.564;23.164;2023-04-01T11:00:25;-11650.84;;;-142.29;43.87
7748;BME280;3918;42.564;23.164;2023-04-01T11:12:47;-11650.84;;;-142.29;45.06
7748;BME280;3918;42.564;23.164;2023-04-01T11:15:54;-11650.84;;;-142.29;45.62
7748;BME280;3918;42.564;23.164;2023-04-01T11:18:49;-11650.84;;;-142.29;47.05
7748;BME280;3918;42.564;23.164;2023-04-01T11:21:58;-11650.84;;;-142.29;47.23
7748;BME280;3918;42.564;23.164;2023-04-01T11:24:51;-11650.84;;;-142.29;47.55
7748;BME280;3918;42.564;23.164;2023-04-01T11:27:35;-11650.84;;;-142.29;48.03
7748;BME280;3918;42.564;23.164;2023-04-01T11:30:25;-11650.84;;;-142.29;48.44
7748;BME280;3918;42.564;23.164;2023-04-01T11:32:59;-11650.84;;;-142.29;49.81
7748;BME280;3918;42.564;23.164;2023-04-01T11:35:57;-11650.84;;;-142.29;57.42
7748;BME280;3918;42.564;23.164;2023-04-01T11:38:51;-11650.84;;;-142.29;100.00
7748;BME280;3918;42.564;23.164;2023-04-01T11:41:29;-11650.84;;;-142.29;100.00
7748;BME280;3918;42.564;23.164;2023-04-01T11:44:11;-11650.84;;;-142.29;100.00
7748;BME280;3918;42.564;23.164;2023-04-01T11:47:00;-11650.84;;;-142.29;100.00
7748;BME280;3918;42.564;23.164;2023-04-01T11:49:47;-11650.84;;;-142.29;100.00
7748;BME280;3918;42.564;23.164;2023-04-01T11:55:34;-11650.84;;;-142.29;100.00
7748;BME280;3918;42.564;23.164;2023-04-01T11:58:28;-11650.84;;;-142.29;100.00
7748;BME280;3918;42.564;23.164;2023-04-01T12:01:08;-11650.84;;;-142.29;100.00
7748;BME280;3918;42.564;23.164;2023-04-01T12:03:54;-11650.84;;;-142.29;100.00
7748;BME280;3918;42.564;23.164;2023-04-01T12:06:34;-11650.84;;;-142.29;100.00
7748;BME280;3918;42.564;23.164;2023-04-01T12:09:09;-11650.84;;;-142.29;100.00
7748;BME280;3918;42.564;23.164;2023-04-01T12:11:49;-11650.84;;;-142.29;100.00
7748;BME280;3918;42.564;23.164;2023-04-01T12:14:21;-11650.84;;;-142.29;100.00
7748;BME280;3918;42.564;23.164;2023-04-01T12:17:03;-11650.84;;;-142.29;100.00
7748;BME280;3918;42.564;23.164;2023-04-01T12:19:42;-11650.84;;;-142.29;100.00
7748;BME280;3918;42.564;23.164;2023-04-01T12:22:25;-11650.84;;;-142.29;100.00
7748;BME280;3918;42.564;23.164;2023-04-01T12:25:04;-11650.84;;;-142.29;100.00
7748;BME280;3918;42.564;23.164;2023-04-01T12:27:45;-11650.84;;;-142.29;100.00
7748;BME280;3918;42.564;23.164;2023-04-01T12:30:42;-11650.84;;;-142.29;100.00
7748;BME280;3918;42.564;23.164;2023-04-01T12:33:41;-11650.84;;;-142.29;100.00
7748;BME280;3918;42.564;23.164;2023-04-01T12:36:19;-11650.84;;;-142.29;100.00
7748;BME280;3918;42.564;23.164;2023-04-01T12:39:14;-11650.84;;;-142.29;100.00
7748;BME280;3918;42.564;23.164;2023-04-01T12:41:50;-11650.84;;;-142.29;100.00
7748;BME280;3918;42.564;23.164;2023-04-01T12:44:38;-11650.84;;;-142.29;100.00
7748;BME280;3918;42.564;23.164;2023-04-01T12:50:23;-11650.84;;;-142.29;100.00
7748;BME280;3918;42.564;23.164;2023-04-01T12:53:10;-11650.84;;;-142.29;100.00
7748;BME280;3918;42.564;23.164;2023-04-01T12:55:41;-11650.84;;;-142.29;100.00
7748;BME280;3918;42.564;23.164;2023-04-01T12:58:34;-11650.84;;;-142.29;100.00
7748;BME280;3918;42.564;23.164;2023-04-01T13:01:27;-11650.84;;;-142.29;100.00
7748;BME280;3918;42.564;23.164;2023-04-01T13:04:11;-11650.84;;;-142.29;100.00
7748;BME280;3918;42.564;23.164;2023-04-01T13:06:52;-11650.84;;;-142.29;100.00
7748;BME280;3918;42.564;23.164;2023-04-01T13:09:34;-11650.84;;;-142.29;100.00
7748;BME280;3918;42.564;23.164;2023-04-01T13:12:21;-11650.84;;;-142.29;100.00
7748;BME280;3918;42.564;23.164;2023-04-01T13:15:10;-11650.84;;;-142.29;100.00
7748;BME280;3918;42.564;23.164;2023-04-01T13:17:47;-11650.84;;;-142.29;100.00
7748;BME280;3918;42.564;23.164;2023-04-01T13:20:23;-11650.84;;;-142.29;100.00
7748;BME280;3918;42.564;23.164;2023-04-01T13:23:04;-11650.84;;;-142.29;100.00
7748;BME280;3918;42.564;23.164;2023-04-01T13:25:37;-11650.84;;;-142.29;100.00
7748;BME280;3918;42.564;23.164;2023-04-01T13:28:12;-11650.84;;;-142.29;100.00
7748;BME280;3918;42.564;23.164;2023-04-01T13:30:45;-11650.84;;;-142.29;100.00
7748;BME280;3918;42.564;23.164;2023-04-01T13:33:21;-11650.84;;;-142.29;100.00
7748;BME280;3918;42.564;23.164;2023-04-01T13:36:01;-11650.84;;;-142.29;100.00
7748;BME280;3918;42.564;23.164;2023-04-01T13:38:48;-11650.84;;;-142.29;100.00
7748;BME280;3918;42.564;23.164;2023-04-01T13:41:28;-11650.84;;;-142.29;100.00
7748;BME280;3918;42.564;23.164;2023-04-01T13:44:00;-11650.84;;;-142.29;100.00
7748;BME280;3918;42.564;23.164;2023-04-01T13:46:46;-11650.84;;;-142.29;100.00
7748;BME280;3918;42.564;23.164;2023-04-01T13:49:40;-11650.84;;;-142.29;100.00
7748;BME280;3918;42.564;23.164;2023-04-01T13:52:37;-11650.84;;;-142.29;100.00
7748;BME280;3918;42.564;23.164;2023-04-01T13:55:22;-11650.84;;;-142.29;100.00
7748;BME280;3918;42.564;23.164;2023-04-01T13:58:24;-11650.84;;;-142.29;100.00
7748;BME280;3918;42.564;23.164;2023-04-01T14:01:03;-11650.84;;;-142.29;100.00
7748;BME280;3918;42.564;23.164;2023-04-01T14:03:49;-11650.84;;;-142.29;100.00
7748;BME280;3918;42.564;23.164;2023-04-01T14:06:35;-11650.84;;;-142.29;100.00
7748;BME280;3918;42.564;23.164;2023-04-01T14:09:31;-11650.84;;;-142.29;100.00
7748;BME280;3918;42.564;23.164;2023-04-01T14:12:04;-11650.84;;;-142.29;100.00
7748;BME280;3918;42.564;23.164;2023-04-01T14:14:42;-11650.84;;;-142.29;100.00
7748;BME280;3918;42.564;23.164;2023-04-01T14:17:24;-11650.84;;;-142.29;100.00
7748;BME280;3918;42.564;23.164;2023-04-01T14:20:06;-11650.84;;;-142.29;100.00